createdAt,value
2022-10-11T00:01:20.638Z,63.76
2022-10-11T00:03:47.348Z,63.38
2022-10-11T00:06:14.104Z,63.51
2022-10-11T00:08:40.698Z,63.45
2022-10-11T00:11:08.066Z,63.36
2022-10-11T00:13:34.923Z,63.32
2022-10-11T00:16:07.807Z,63.41
2022-10-11T00:18:34.728Z,63.56
2022-10-11T00:21:06.197Z,63.69
2022-10-11T00:23:33.429Z,63.99
2022-10-11T00:26:02.081Z,63.74
2022-10-11T00:28:29.086Z,64.08
2022-10-11T00:30:55.790Z,64.31
2022-10-11T00:33:22.549Z,63.79
2022-10-11T00:35:49.348Z,64.44
2022-10-11T00:38:18.213Z,64.37
2022-10-11T00:40:45.655Z,64.50
2022-10-11T00:43:25.632Z,64.15
2022-10-11T00:45:58.270Z,64.08
2022-10-11T00:48:47.949Z,64.27
2022-10-11T00:51:18.316Z,63.81
2022-10-11T00:53:48.605Z,64.17
2022-10-11T00:56:23.774Z,63.69
2022-10-11T00:58:50.828Z,63.47
2022-10-11T01:01:17.763Z,63.45
2022-10-11T01:03:45.183Z,64.12
2022-10-11T01:06:11.862Z,63.77
2022-10-11T01:08:39.097Z,63.93
2022-10-11T01:11:06.559Z,63.73
2022-10-11T01:13:44.889Z,63.61
2022-10-11T01:16:37.775Z,63.75
2022-10-11T01:19:29.106Z,63.77
2022-10-11T01:22:19.090Z,63.57
2022-10-11T01:25:19.841Z,63.59
2022-10-11T01:28:10.669Z,63.57
2022-10-11T01:30:38.510Z,63.74
2022-10-11T01:33:24.628Z,63.74
2022-10-11T01:36:04.107Z,63.42
2022-10-11T01:38:37.023Z,63.32
2022-10-11T01:41:16.975Z,63.83
2022-10-11T01:43:44.205Z,64.01
2022-10-11T01:46:11.693Z,63.58
2022-10-11T01:48:50.119Z,63.24
2022-10-11T01:51:19.576Z,63.17
2022-10-11T01:53:50.819Z,63.04
2022-10-11T01:56:22.837Z,62.97
2022-10-11T01:59:06.615Z,62.56
2022-10-11T02:01:36.140Z,62.94
2022-10-11T02:04:23.783Z,62.35
2022-10-11T02:06:56.293Z,62.39
2022-10-11T02:09:36.514Z,62.51
2022-10-11T02:12:09.262Z,62.60
2022-10-11T02:14:41.793Z,62.71
2022-10-11T02:17:22.923Z,62.83
2022-10-11T02:19:53.140Z,63.23
2022-10-11T02:22:25.070Z,62.82
2022-10-11T02:24:55.531Z,63.04
2022-10-11T02:27:26.828Z,63.13
2022-10-11T02:29:56.262Z,63.23
2022-10-11T02:32:25.379Z,63.38
2022-10-11T02:34:57.576Z,63.83
2022-10-11T02:37:30.241Z,63.69
2022-10-11T02:40:06.603Z,63.98
2022-10-11T02:43:04.824Z,63.47
2022-10-11T02:45:43.884Z,63.34
2022-10-11T02:48:12.403Z,63.18
2022-10-11T02:50:40.371Z,63.24
2022-10-11T02:53:07.275Z,62.96
2022-10-11T02:55:34.178Z,62.72
2022-10-11T02:58:01.223Z,62.81
2022-10-11T03:00:28.410Z,62.88
2022-10-11T03:02:55.040Z,63.06
2022-10-11T03:05:21.589Z,63.29
2022-10-11T03:07:48.221Z,63.55
2022-10-11T03:10:14.766Z,63.51
2022-10-11T03:12:41.777Z,63.92
2022-10-11T03:15:08.691Z,63.62
2022-10-11T03:17:36.843Z,63.78
2022-10-11T03:20:07.288Z,63.45
2022-10-11T03:22:33.962Z,63.86
2022-10-11T03:25:04.004Z,64.36
2022-10-11T03:27:31.736Z,64.43
2022-10-11T03:29:58.727Z,64.77
2022-10-11T03:32:25.782Z,64.94
2022-10-11T03:34:52.442Z,64.76
2022-10-11T03:37:19.036Z,64.63
2022-10-11T03:39:45.900Z,65.27
2022-10-11T03:42:13.983Z,65.09
2022-10-11T03:44:42.186Z,64.18
2022-10-11T03:47:09.045Z,63.27
2022-10-11T03:49:38.791Z,62.77
2022-10-11T03:52:07.846Z,63.19
2022-10-11T03:54:34.386Z,62.09
2022-10-11T03:57:01.183Z,62.14
2022-10-11T03:59:27.714Z,61.65
2022-10-11T04:01:54.377Z,60.86
2022-10-11T04:04:20.994Z,60.51
2022-10-11T04:06:47.620Z,61.08
2022-10-11T04:09:14.193Z,60.83
2022-10-11T04:11:40.703Z,60.37
2022-10-11T04:14:07.310Z,60.70
2022-10-11T04:16:35.159Z,60.30
2022-10-11T04:19:01.694Z,59.86
2022-10-11T04:21:28.254Z,60.24
2022-10-11T04:23:54.983Z,59.26
2022-10-11T04:26:21.511Z,59.25
2022-10-11T04:28:48.137Z,58.73
2022-10-11T04:31:14.871Z,58.51
2022-10-11T04:33:41.396Z,58.25
2022-10-11T04:36:08.636Z,58.15
2022-10-11T04:38:35.438Z,58.31
2022-10-11T04:41:29.312Z,57.77
2022-10-11T04:43:56.109Z,58.62
2022-10-11T04:46:23.411Z,58.17
2022-10-11T04:48:50.164Z,58.05
2022-10-11T04:51:17.485Z,57.98
2022-10-11T04:53:44.297Z,57.91
2022-10-11T04:56:11.505Z,57.73
2022-10-11T04:58:42.271Z,57.69
2022-10-11T05:01:09.730Z,57.65
2022-10-11T05:03:36.778Z,57.99
2022-10-11T05:06:06.100Z,57.33
2022-10-11T05:08:33.718Z,57.83
2022-10-11T05:11:02.587Z,57.52
2022-10-11T05:13:30.500Z,57.03
2022-10-11T05:15:58.188Z,57.00
2022-10-11T05:18:25.185Z,57.06
2022-10-11T05:21:19.704Z,56.30
2022-10-11T05:23:47.965Z,56.81
2022-10-11T05:26:15.743Z,56.11
2022-10-11T05:28:43.003Z,56.18
2022-10-11T05:31:10.240Z,55.94
2022-10-11T05:33:36.991Z,55.70
2022-10-11T05:36:04.600Z,56.54
2022-10-11T05:38:31.564Z,56.66
2022-10-11T05:41:02.953Z,56.64
2022-10-11T05:43:30.411Z,56.01
2022-10-11T05:45:57.255Z,56.43
2022-10-11T05:48:26.813Z,56.43
2022-10-11T05:51:02.974Z,56.69
2022-10-11T05:53:29.955Z,56.28
2022-10-11T05:55:56.797Z,56.57
2022-10-11T05:58:23.407Z,56.74
2022-10-11T06:00:50.116Z,56.82
2022-10-11T06:03:17.575Z,57.15
2022-10-11T06:05:44.180Z,57.21
2022-10-11T06:08:11.133Z,56.80
2022-10-11T06:10:38.549Z,56.97
2022-10-11T06:13:06.173Z,56.31
2022-10-11T06:15:33.328Z,56.54
2022-10-11T06:18:00.049Z,56.68
2022-10-11T06:20:27.154Z,56.49
2022-10-11T06:22:53.910Z,55.80
2022-10-11T06:25:20.493Z,56.12
2022-10-11T06:27:47.068Z,56.12
2022-10-11T06:30:14.399Z,55.38
2022-10-11T06:32:40.981Z,54.65
2022-10-11T06:35:08.209Z,54.96
2022-10-11T06:37:34.799Z,54.03
2022-10-11T06:40:02.081Z,53.84
2022-10-11T06:42:28.623Z,54.14
2022-10-11T06:44:55.118Z,53.77
2022-10-11T06:47:21.714Z,53.61
2022-10-11T06:49:48.259Z,53.48
2022-10-11T06:52:14.938Z,53.11
2022-10-11T06:54:44.927Z,52.58
2022-10-11T06:57:12.585Z,52.62
2022-10-11T06:59:39.230Z,52.21
2022-10-11T07:02:06.771Z,52.01
2022-10-11T07:04:33.965Z,52.10
2022-10-11T07:07:01.155Z,52.20
2022-10-11T07:09:27.837Z,51.80
2022-10-11T07:11:54.399Z,51.95
2022-10-11T07:14:20.939Z,51.77
2022-10-11T07:16:47.660Z,51.50
2022-10-11T07:19:14.301Z,51.32
2022-10-11T07:21:40.823Z,51.27
2022-10-11T07:24:07.592Z,50.72
2022-10-11T07:26:38.792Z,50.58
2022-10-11T07:29:08.055Z,49.89
2022-10-11T07:31:37.367Z,49.68
2022-10-11T07:34:04.071Z,49.17
2022-10-11T07:36:30.724Z,49.47
2022-10-11T07:38:57.301Z,49.05
2022-10-11T07:41:23.986Z,49.61
2022-10-11T07:43:50.979Z,49.08
2022-10-11T07:46:18.309Z,49.40
2022-10-11T07:48:44.993Z,49.49
2022-10-11T07:51:12.985Z,49.11
2022-10-11T07:53:45.352Z,48.55
2022-10-11T07:56:14.196Z,48.76
2022-10-11T07:58:42.002Z,48.92
2022-10-11T08:01:10.451Z,48.62
2022-10-11T08:03:38.100Z,48.23
2022-10-11T08:06:07.787Z,48.64
2022-10-11T08:08:35.128Z,48.70
2022-10-11T08:11:02.192Z,48.94
2022-10-11T08:13:28.864Z,48.90
2022-10-11T08:15:55.544Z,48.99
2022-10-11T08:18:22.442Z,48.34
2022-10-11T08:20:49.156Z,48.47
2022-10-11T08:23:16.859Z,48.25
2022-10-11T08:25:46.092Z,47.92
2022-10-11T08:28:17.150Z,48.13
2022-10-11T08:30:48.737Z,47.91
2022-10-11T08:33:16.794Z,47.82
2022-10-11T08:35:43.773Z,47.73
2022-10-11T08:38:10.719Z,47.83
2022-10-11T08:40:37.890Z,47.25
2022-10-11T08:43:08.455Z,47.30
2022-10-11T08:45:50.253Z,47.08
2022-10-11T08:48:34.245Z,47.29
2022-10-11T08:51:02.690Z,47.07
2022-10-11T08:53:46.386Z,47.57
2022-10-11T08:56:14.710Z,46.67
2022-10-11T08:58:50.754Z,46.71
2022-10-11T09:01:28.137Z,46.11
2022-10-11T09:03:55.318Z,45.96
2022-10-11T09:06:43.531Z,45.48
2022-10-11T09:09:23.391Z,45.31
2022-10-11T09:12:02.139Z,46.37
2022-10-11T09:15:10.354Z,46.50
2022-10-11T09:18:04.579Z,46.31
2022-10-11T09:20:45.988Z,45.84
2022-10-11T09:23:31.196Z,45.11
2022-10-11T09:26:25.595Z,44.58
2022-10-11T09:29:21.697Z,44.84
2022-10-11T09:31:57.048Z,44.68
2022-10-11T09:34:32.399Z,44.07
2022-10-11T09:37:42.076Z,43.73
2022-10-11T09:40:20.759Z,42.78
2022-10-11T09:42:47.316Z,41.59
2022-10-11T09:45:20.167Z,41.02
2022-10-11T09:47:48.175Z,40.58
2022-10-11T09:50:25.731Z,40.51
2022-10-11T09:52:57.402Z,40.74
2022-10-11T09:55:41.050Z,38.78
2022-10-11T09:58:31.059Z,34.31
2022-10-11T10:01:07.956Z,29.41
2022-10-11T10:03:39.820Z,27.63
2022-10-11T10:06:08.551Z,27.97
2022-10-11T10:08:36.005Z,27.11
2022-10-11T10:11:06.743Z,24.63
2022-10-11T10:13:51.331Z,22.09
2022-10-11T10:16:28.430Z,21.19
2022-10-11T10:18:59.126Z,20.40
2022-10-11T10:21:32.559Z,22.34
2022-10-11T10:24:03.270Z,24.86
2022-10-11T10:26:31.137Z,26.91
2022-10-11T10:29:08.901Z,29.91
2022-10-11T10:32:01.865Z,31.70
2022-10-11T10:34:39.773Z,33.36
2022-10-11T10:37:14.053Z,34.46
2022-10-11T10:39:47.067Z,35.70
2022-10-11T10:42:18.832Z,36.46
2022-10-11T10:44:52.428Z,37.51
2022-10-11T10:47:50.515Z,38.33
2022-10-11T10:50:31.196Z,38.54
2022-10-11T10:53:31.578Z,38.60
2022-10-11T10:56:10.276Z,37.95
2022-10-11T10:58:49.033Z,36.32
2022-10-11T11:01:29.065Z,30.91
2022-10-11T11:04:13.949Z,25.13
2022-10-11T11:07:15.129Z,21.20
2022-10-11T11:10:13.180Z,18.82
2022-10-11T11:13:02.353Z,16.91
2022-10-11T11:15:38.678Z,16.14
2022-10-11T11:18:27.128Z,15.83
2022-10-11T11:21:18.771Z,15.74
2022-10-11T11:23:45.340Z,14.94
2022-10-11T11:26:27.510Z,14.41
2022-10-11T11:28:57.100Z,14.27
2022-10-11T11:32:01.937Z,13.23
2022-10-11T11:34:37.889Z,13.53
2022-10-11T11:37:11.729Z,13.27
2022-10-11T11:39:48.316Z,13.52
2022-10-11T11:42:39.329Z,12.61
2022-10-11T11:45:14.934Z,12.92
2022-10-11T11:47:47.159Z,13.27
2022-10-11T11:50:22.608Z,12.88
2022-10-11T11:52:58.379Z,13.56
2022-10-11T11:55:37.375Z,13.79
2022-10-11T11:58:37.424Z,13.00
2022-10-11T12:01:18.012Z,13.12
2022-10-11T12:03:52.528Z,13.05
2022-10-11T12:06:27.854Z,12.56
2022-10-11T12:09:02.008Z,13.39
2022-10-11T12:11:40.271Z,12.66
2022-10-11T12:14:28.123Z,12.55
2022-10-11T12:17:09.307Z,12.99
2022-10-11T12:19:37.686Z,12.80
2022-10-11T12:22:17.932Z,13.81
2022-10-11T12:25:20.986Z,16.34
2022-10-11T12:27:48.766Z,19.47
2022-10-11T12:30:53.308Z,22.26
2022-10-11T12:33:51.326Z,23.92
2022-10-11T12:36:56.725Z,26.87
2022-10-11T12:39:23.552Z,28.26
2022-10-11T12:41:55.755Z,28.73
2022-10-11T12:44:23.849Z,29.89
2022-10-11T12:46:50.346Z,30.04
2022-10-11T12:49:52.891Z,30.67
2022-10-11T12:52:47.520Z,30.96
2022-10-11T12:55:35.041Z,31.39
2022-10-11T12:58:13.963Z,32.54
2022-10-11T13:00:41.281Z,31.96
2022-10-11T13:03:32.809Z,32.58
2022-10-11T13:06:04.690Z,32.16
2022-10-11T13:08:34.946Z,32.35
2022-10-11T13:11:06.392Z,32.44
2022-10-11T13:13:43.913Z,32.72
2022-10-11T13:16:21.221Z,32.41
2022-10-11T13:18:50.925Z,33.16
2022-10-11T13:21:32.171Z,32.98
2022-10-11T13:24:02.286Z,33.10
2022-10-11T13:26:31.293Z,33.44
2022-10-11T13:29:00.169Z,33.18
2022-10-11T13:31:27.438Z,33.71
2022-10-11T13:33:56.628Z,33.48
2022-10-11T13:36:26.858Z,33.70
2022-10-11T13:38:57.320Z,34.31
2022-10-11T13:41:27.682Z,34.09
2022-10-11T13:43:56.665Z,33.97
2022-10-11T13:46:26.145Z,34.42
2022-10-11T13:49:05.645Z,34.14
2022-10-11T13:51:37.037Z,35.18
2022-10-11T13:54:13.099Z,35.49
2022-10-11T13:56:51.580Z,35.54
2022-10-11T13:59:23.889Z,34.90
2022-10-11T14:01:57.855Z,35.92
2022-10-11T14:04:29.537Z,35.38
2022-10-11T14:07:00.584Z,35.40
2022-10-11T14:09:31.923Z,35.81
2022-10-11T14:12:39.644Z,35.29
2022-10-11T14:15:31.326Z,35.72
2022-10-11T14:17:59.159Z,35.99
2022-10-11T14:20:38.226Z,36.13
2022-10-11T14:23:05.547Z,36.70
2022-10-11T14:25:32.673Z,36.45
2022-10-11T14:27:59.802Z,36.39
2022-10-11T14:30:28.026Z,36.28
2022-10-11T14:32:57.854Z,36.50
2022-10-11T14:35:30.776Z,36.37
2022-10-11T14:37:57.282Z,36.81
2022-10-11T14:40:27.423Z,36.63
2022-10-11T14:42:54.205Z,36.66
2022-10-11T14:45:23.930Z,36.92
2022-10-11T14:47:51.864Z,36.88
2022-10-11T14:50:39.332Z,36.76
2022-10-11T14:53:07.577Z,36.59
2022-10-11T14:55:36.734Z,36.70
2022-10-11T14:58:05.676Z,36.67
2022-10-11T15:00:33.098Z,36.66
2022-10-11T15:02:59.706Z,37.30
2022-10-11T15:05:33.708Z,37.49
2022-10-11T15:08:02.083Z,37.49
2022-10-11T15:10:35.034Z,37.80
2022-10-11T15:13:02.489Z,37.93
2022-10-11T15:15:32.798Z,38.49
2022-10-11T15:18:01.812Z,38.87
2022-10-11T15:20:31.440Z,39.54
2022-10-11T15:22:59.024Z,39.59
2022-10-11T15:25:26.284Z,39.95
2022-10-11T15:27:53.544Z,39.91
2022-10-11T15:30:41.864Z,39.69
2022-10-11T15:33:08.892Z,40.10
2022-10-11T15:35:35.708Z,39.65
2022-10-11T15:38:02.434Z,39.82
2022-10-11T15:40:35.392Z,40.13
2022-10-11T15:43:03.041Z,40.04
2022-10-11T15:45:30.215Z,40.34
2022-10-11T15:47:57.135Z,40.33
2022-10-11T15:50:39.319Z,40.55
2022-10-11T15:53:12.597Z,40.70
2022-10-11T15:55:44.769Z,40.49
2022-10-11T15:58:21.981Z,40.37
2022-10-11T16:00:50.154Z,40.69
2022-10-11T16:03:17.820Z,40.90
2022-10-11T16:05:44.647Z,41.14
2022-10-11T16:08:11.481Z,41.52
2022-10-11T16:10:39.015Z,41.59
2022-10-11T16:13:06.153Z,42.37
2022-10-11T16:15:33.533Z,42.21
2022-10-11T16:18:00.284Z,42.08
2022-10-11T16:20:27.049Z,42.17
2022-10-11T16:22:54.871Z,42.88
2022-10-11T16:25:22.479Z,43.22
2022-10-11T16:27:50.230Z,43.21
2022-10-11T16:30:17.859Z,43.30
2022-10-11T16:32:45.176Z,43.37
2022-10-11T16:35:16.019Z,43.88
2022-10-11T16:37:43.214Z,43.67
2022-10-11T16:40:11.709Z,44.36
2022-10-11T16:42:39.395Z,44.22
2022-10-11T16:45:06.795Z,44.56
2022-10-11T16:47:34.021Z,44.48
2022-10-11T16:50:00.937Z,44.52
2022-10-11T16:52:27.574Z,44.53
2022-10-11T16:54:54.311Z,44.55
2022-10-11T16:57:21.007Z,44.68
2022-10-11T16:59:47.659Z,44.90
2022-10-11T17:02:17.796Z,45.12
2022-10-11T17:04:45.091Z,45.24
2022-10-11T17:07:13.036Z,45.12
2022-10-11T17:09:43.980Z,45.82
2022-10-11T17:12:13.658Z,45.69
2022-10-11T17:14:41.105Z,46.23
2022-10-11T17:17:09.316Z,46.42
2022-10-11T17:19:44.851Z,46.51
2022-10-11T17:22:14.011Z,47.24
2022-10-11T17:24:40.949Z,46.95
2022-10-11T17:27:08.419Z,47.36
2022-10-11T17:29:38.441Z,47.37
2022-10-11T17:32:05.845Z,47.45
2022-10-11T17:34:33.187Z,47.50
2022-10-11T17:36:59.855Z,47.57
2022-10-11T17:39:26.558Z,47.55
2022-10-11T17:41:53.167Z,47.53
2022-10-11T17:44:20.161Z,48.02
2022-10-11T17:46:47.439Z,47.74
2022-10-11T17:49:14.191Z,47.78
2022-10-11T17:51:41.475Z,47.65
2022-10-11T17:54:12.787Z,47.35
2022-10-11T17:56:41.752Z,47.88
2022-10-11T17:59:14.560Z,47.55
2022-10-11T18:01:41.558Z,47.31
2022-10-11T18:04:13.398Z,47.42
2022-10-11T18:06:40.077Z,47.23
2022-10-11T18:09:07.186Z,47.49
2022-10-11T18:11:34.126Z,47.72
2022-10-11T18:14:01.012Z,47.91
2022-10-11T18:16:30.114Z,47.72
2022-10-11T18:18:57.526Z,47.46
2022-10-11T18:21:29.857Z,47.58
2022-10-11T18:24:02.521Z,47.55
2022-10-11T18:26:30.762Z,47.11
2022-10-11T18:28:58.138Z,47.36
2022-10-11T18:31:27.633Z,47.35
2022-10-11T18:33:55.101Z,47.70
2022-10-11T18:36:25.737Z,47.33
2022-10-11T18:38:57.121Z,47.45
2022-10-11T18:41:30.405Z,48.33
2022-10-11T18:43:59.482Z,48.25
2022-10-11T18:46:26.462Z,48.30
2022-10-11T18:48:54.925Z,48.25
2022-10-11T18:51:26.965Z,48.05
2022-10-11T18:53:54.856Z,48.52
2022-10-11T18:56:24.580Z,48.29
2022-10-11T18:58:52.188Z,48.69
2022-10-11T19:01:22.054Z,48.88
2022-10-11T19:03:52.562Z,49.02
2022-10-11T19:06:22.275Z,48.69
2022-10-11T19:09:09.388Z,49.35
2022-10-11T19:11:36.841Z,49.49
2022-10-11T19:14:07.198Z,49.09
2022-10-11T19:16:38.037Z,49.51
2022-10-11T19:19:05.358Z,49.20
2022-10-11T19:21:32.132Z,49.38
2022-10-11T19:23:59.102Z,49.40
2022-10-11T19:26:33.910Z,49.03
2022-10-11T19:29:04.241Z,49.04
2022-10-11T19:31:32.568Z,48.57
2022-10-11T19:33:59.814Z,48.57
2022-10-11T19:36:33.985Z,48.20
2022-10-11T19:39:04.653Z,48.21
2022-10-11T19:41:32.556Z,48.05
2022-10-11T19:43:59.990Z,47.74
2022-10-11T19:49:17.694Z,46.84
2022-10-11T19:51:44.893Z,46.84
2022-10-11T19:54:13.789Z,46.65
2022-10-11T19:56:40.916Z,46.86
2022-10-11T19:59:07.868Z,47.18
2022-10-11T20:01:36.251Z,47.06
2022-10-11T20:04:09.105Z,46.92
2022-10-11T20:06:38.991Z,47.14
2022-10-11T20:09:28.384Z,46.69
2022-10-11T20:11:54.801Z,46.59
2022-10-11T20:14:21.814Z,46.62
2022-10-11T20:16:50.335Z,46.71
2022-10-11T20:19:17.516Z,46.45
2022-10-11T20:21:45.023Z,46.58
2022-10-11T20:24:12.160Z,46.80
2022-10-11T20:26:39.346Z,46.11
2022-10-11T20:29:06.394Z,46.58
2022-10-11T20:31:34.641Z,46.99
2022-10-11T20:34:04.086Z,46.73
2022-10-11T20:36:32.197Z,46.59
2022-10-11T20:38:59.532Z,47.33
2022-10-11T20:41:28.940Z,47.17
2022-10-11T20:43:57.706Z,47.63
2022-10-11T20:46:27.918Z,48.06
2022-10-11T20:49:01.355Z,48.34
2022-10-11T20:51:30.702Z,48.05
2022-10-11T20:53:58.725Z,48.29
2022-10-11T20:56:25.713Z,48.56
2022-10-11T20:58:56.963Z,48.86
2022-10-11T21:01:32.182Z,49.89
2022-10-11T21:04:00.877Z,49.19
2022-10-11T21:06:28.885Z,49.56
2022-10-11T21:08:56.478Z,49.33
2022-10-11T21:11:31.268Z,49.27
2022-10-11T21:13:59.456Z,49.00
2022-10-11T21:16:27.371Z,49.34
2022-10-11T21:18:56.524Z,49.21
2022-10-11T21:21:26.549Z,48.72
2022-10-11T21:23:55.594Z,48.62
2022-10-11T21:26:22.341Z,48.67
2022-10-11T21:28:49.244Z,48.54
2022-10-11T21:31:17.944Z,48.66
2022-10-11T21:33:45.105Z,48.52
2022-10-11T21:36:20.680Z,49.19
2022-10-11T21:38:48.333Z,49.00
2022-10-11T21:41:20.628Z,49.29
2022-10-11T21:43:48.049Z,48.87
2022-10-11T21:46:47.642Z,49.16
2022-10-11T21:49:13.896Z,49.42
2022-10-11T21:51:40.493Z,49.29
2022-10-11T21:54:07.240Z,49.40
2022-10-11T21:56:34.056Z,48.99
2022-10-11T21:59:00.796Z,49.24
2022-10-11T22:01:27.789Z,49.43
2022-10-11T22:03:55.115Z,49.92
2022-10-11T22:06:21.884Z,49.80
2022-10-11T22:08:49.949Z,49.77
2022-10-11T22:11:16.829Z,48.86
2022-10-11T22:13:43.526Z,49.25
2022-10-11T22:16:12.330Z,48.85
2022-10-11T22:18:39.440Z,48.67
2022-10-11T22:21:13.463Z,49.37
2022-10-11T22:23:41.576Z,48.83
2022-10-11T22:26:14.810Z,48.94
2022-10-11T22:28:41.978Z,48.82
2022-10-11T22:31:10.099Z,48.88
2022-10-11T22:33:37.142Z,48.86
2022-10-11T22:36:08.532Z,48.92
2022-10-11T22:38:36.589Z,49.18
2022-10-11T22:41:03.472Z,49.33
2022-10-11T22:43:30.159Z,49.09
2022-10-11T22:45:56.779Z,49.39
2022-10-11T22:48:23.518Z,49.32
2022-10-11T22:50:50.174Z,49.20
2022-10-11T22:53:17.494Z,49.27
2022-10-11T22:55:44.205Z,49.65
2022-10-11T22:58:10.927Z,49.37
2022-10-11T23:00:37.816Z,49.27
2022-10-11T23:03:07.006Z,49.24
2022-10-11T23:05:36.775Z,49.48
2022-10-11T23:08:03.476Z,49.73
2022-10-11T23:10:30.172Z,49.26
2022-10-11T23:12:56.773Z,49.57
2022-10-11T23:15:23.492Z,49.11
2022-10-11T23:17:50.121Z,48.76
2022-10-11T23:20:16.771Z,48.65
2022-10-11T23:22:43.433Z,49.15
2022-10-11T23:25:10.153Z,49.91
2022-10-11T23:27:37.102Z,50.28
2022-10-11T23:30:05.160Z,49.64
2022-10-11T23:32:32.480Z,50.33
2022-10-11T23:34:59.155Z,49.51
2022-10-11T23:37:25.860Z,49.83
2022-10-11T23:39:52.394Z,50.03
2022-10-11T23:42:18.983Z,50.05
2022-10-11T23:44:45.761Z,49.90
2022-10-11T23:47:12.532Z,50.02
2022-10-11T23:49:39.076Z,50.21
2022-10-11T23:52:05.655Z,50.05
2022-10-11T23:54:32.288Z,50.09
2022-10-11T23:56:58.884Z,50.37
2022-10-11T23:59:25.425Z,50.85
